2017-08-23 - 15:44:00

SR: 0426 - SS: 1837

RWY: 07


OBSERVATION: n/a

RVR Mean 1 min: (Runway Visual Range)
A: P2000 - B: P2000 - C: P2000
RVR Mean 10 min:
A: P2000 - B: P2000 - C: P2000
WARNING: n/a
W25: 040-170(100-05kt) 02kt-07kt
W07: 050-140(100-07kt) 03kt-09kt
OTHER: n/a

QFE: (tats�chlicher Luftdruck) 1009.3 hPa = 29.79 inHg
QNH:(Luftdruck auf Meeresh�he) 1015.1 hPa = 29.97 inHg
Temperatur: 24.5 �C
Dew point(Taupunkt): 13.0 �C

METAR:  00882 SADL31 EDDG 231520 METAR EDDG 231520Z VRB03KT CAVOK 25/13 Q1015 NOSIG= 
METAR (aus weather.noaa.gov):
2017/08/23 15:20 EDDG 231520Z VRB03KT CAVOK 25/13 Q1015 NOSIG

TAF (aus weather.noaa.gov):
2017/08/23 12:27 TAF EDDG 231100Z 2312/2412 11004KT CAVOK PROB30 TEMPO 2323/2402 21012KT SHRA SCT030CB BECMG 2400/2403 22006KT TEMPO 2403/2408 BKN012 BECMG 2405/2408 24011KT